Time;durP1;ratioP1;P1;durP2;ratioP2;P2;SDS_P1;SDS_P2;PMS_P1;PMS_P2;Temp;Humidity;BMP_temperature;BMP_pressure;BME280_temperature;BME280_humidity;BME280_pressure;Samples;Min_cycle;Max_cycle;Signal;HPM_P1;HPM_P2
2021/12/03 00:00:56;;;;;;;8.35;4.28;;;;;;;3.78;100.00;97233.87;4500718;31;20798;-75
2021/12/03 00:03:24;;;;;;;6.53;3.92;;;;;;;3.69;100.00;97246.66;4501254;31;20461;-75
2021/12/03 00:05:53;;;;;;;7.93;3.85;;;;;;;3.71;100.00;97231.00;4500630;31;20118;-75
2021/12/03 00:08:20;;;;;;;8.90;4.45;;;;;;;3.63;100.00;97229.03;4500740;31;20100;-75
2021/12/03 00:10:54;;;;;;;7.53;4.12;;;;;;;3.66;100.00;97239.12;4500335;31;20111;-75
2021/12/03 00:13:22;;;;;;;7.78;4.03;;;;;;;3.69;100.00;97227.69;4501043;31;20092;-75
2021/12/03 00:15:51;;;;;;;5.95;3.35;;;;;;;3.67;100.00;97224.44;4500646;31;20096;-75
2021/12/03 00:18:18;;;;;;;5.80;3.47;;;;;;;3.63;100.00;97217.88;4500650;31;20114;-75
2021/12/03 00:20:46;;;;;;;5.47;3.35;;;;;;;3.69;100.00;97228.53;4500617;31;20092;-75
2021/12/03 00:23:13;;;;;;;8.40;3.75;;;;;;;3.64;100.00;97248.00;4500540;31;20566;-74
2021/12/03 00:25:41;;;;;;;7.45;4.10;;;;;;;3.66;100.00;97243.50;4500560;31;20573;-74
2021/12/03 00:28:08;;;;;;;6.97;3.87;;;;;;;3.60;100.00;97241.44;4500479;31;20386;-74
2021/12/03 00:30:36;;;;;;;4.87;3.15;;;;;;;3.67;100.00;97245.97;4500516;31;20161;-74
2021/12/03 00:33:05;;;;;;;7.68;3.80;;;;;;;3.68;100.00;97257.97;4500307;31;20114;-74
2021/12/03 00:35:32;;;;;;;7.95;4.28;;;;;;;3.67;100.00;97261.50;4500431;31;20118;-74
2021/12/03 00:38:00;;;;;;;6.05;3.28;;;;;;;3.67;100.00;97265.88;4500406;31;20108;-74
2021/12/03 00:40:30;;;;;;;9.43;4.05;;;;;;;3.62;100.00;97263.69;4500305;31;20394;-74
2021/12/03 00:42:58;;;;;;;9.27;4.68;;;;;;;3.66;100.00;97259.03;4500378;31;20452;-74
2021/12/03 00:45:27;;;;;;;8.40;4.00;;;;;;;3.62;100.00;97263.69;4500448;31;20095;-74
2021/12/03 00:47:54;;;;;;;9.32;5.07;;;;;;;3.65;100.00;97278.94;4500147;31;20155;-74
2021/12/03 00:50:22;;;;;;;7.43;4.20;;;;;;;3.66;100.00;97290.94;4500107;31;20088;-74
2021/12/03 00:52:52;;;;;;;9.13;4.40;;;;;;;3.64;100.00;97300.59;4500342;31;20116;-74
2021/12/03 00:55:20;;;;;;;8.32;4.55;;;;;;;3.58;100.00;97298.53;4500220;31;20127;-74
2021/12/03 00:57:47;;;;;;;7.05;4.05;;;;;;;3.54;100.00;97286.78;4500168;31;20114;-74
2021/12/03 01:00:19;;;;;;;9.30;4.90;;;;;;;3.49;100.00;97283.78;4500098;31;20138;-74
2021/12/03 01:02:46;;;;;;;9.68;5.35;;;;;;;3.49;100.00;97294.94;4500163;31;20490;-74
2021/12/03 01:05:18;;;;;;;8.10;4.12;;;;;;;3.50;100.00;97306.16;4500146;31;20096;-75
2021/12/03 01:07:45;;;;;;;7.00;3.72;;;;;;;3.47;100.00;97293.47;4500149;31;20171;-74
2021/12/03 01:10:13;;;;;;;9.82;4.55;;;;;;;3.54;100.00;97298.00;4500022;31;20095;-75
2021/12/03 01:12:40;;;;;;;7.30;4.15;;;;;;;3.51;100.00;97300.00;4500214;31;20118;-74
2021/12/03 01:15:11;;;;;;;6.90;3.78;;;;;;;3.49;100.00;97299.31;4499900;31;20100;-74
2021/12/03 01:17:38;;;;;;;7.97;4.15;;;;;;;3.53;100.00;97305.88;4499800;31;20084;-74
2021/12/03 01:20:07;;;;;;;7.30;3.60;;;;;;;3.49;100.00;97301.91;4499682;31;20088;-74
2021/12/03 01:22:36;;;;;;;6.57;3.55;;;;;;;3.49;100.00;97301.91;4501448;31;20630;-74
2021/12/03 01:25:06;;;;;;;7.53;4.00;;;;;;;3.43;100.00;97297.25;4501869;31;20092;-74
2021/12/03 01:27:33;;;;;;;5.40;3.17;;;;;;;3.47;100.00;97304.63;4501681;31;20476;-74
2021/12/03 01:30:00;;;;;;;5.90;3.15;;;;;;;3.43;100.00;97307.59;4501718;31;20156;-74
2021/12/03 01:32:28;;;;;;;6.78;3.15;;;;;;;3.43;100.00;97297.25;4501818;31;20476;-74
2021/12/03 01:34:55;;;;;;;6.20;2.83;;;;;;;3.42;100.00;97298.19;4501833;31;20594;-74
2021/12/03 01:37:22;;;;;;;7.15;3.67;;;;;;;3.36;100.00;97300.34;4500528;31;20091;-74
2021/12/03 01:39:50;;;;;;;8.43;4.40;;;;;;;3.42;100.00;97318.91;4501522;31;20083;-74
2021/12/03 01:42:17;;;;;;;6.28;3.35;;;;;;;3.43;100.00;97318.75;4501861;31;20103;-74
2021/12/03 01:44:45;;;;;;;7.10;3.45;;;;;;;3.35;100.00;97316.81;4501800;31;20088;-74
2021/12/03 01:47:12;;;;;;;6.97;3.47;;;;;;;3.33;100.00;97323.06;4501456;31;20080;-74
2021/12/03 01:49:39;;;;;;;7.72;4.18;;;;;;;3.35;100.00;97339.31;4501820;31;20096;-74
2021/12/03 01:52:07;;;;;;;7.45;3.70;;;;;;;3.36;100.00;97336.59;4501573;31;20519;-74
2021/12/03 01:54:35;;;;;;;7.50;4.25;;;;;;;3.37;100.00;97334.81;4501560;31;20144;-74
2021/12/03 01:57:02;;;;;;;5.93;3.58;;;;;;;3.37;100.00;97333.03;4501600;31;20123;-74
2021/12/03 01:59:30;;;;;;;6.55;3.97;;;;;;;3.33;100.00;97338.59;4501750;31;20134;-74
2021/12/03 02:01:58;;;;;;;7.50;3.70;;;;;;;3.33;100.00;97338.59;4501645;31;20446;-74
2021/12/03 02:04:27;;;;;;;6.85;4.40;;;;;;;3.31;100.00;97343.91;4501684;31;20143;-74
2021/12/03 02:06:54;;;;;;;7.85;4.47;;;;;;;3.25;100.00;97352.16;4502024;31;20084;-74
2021/12/03 02:09:21;;;;;;;8.52;4.82;;;;;;;3.26;100.00;97359.00;4501801;31;20123;-74
2021/12/03 02:11:49;;;;;;;10.98;5.10;;;;;;;3.25;100.00;97365.09;4501481;31;20179;-74
2021/12/03 02:14:16;;;;;;;6.22;4.00;;;;;;;3.28;100.00;97359.69;4501698;31;20100;-74
2021/12/03 02:16:45;;;;;;;7.07;4.30;;;;;;;3.26;100.00;97361.59;4501345;31;20127;-74
2021/12/03 02:19:13;;;;;;;6.22;3.75;;;;;;;3.27;100.00;97347.72;4501787;31;20497;-74
2021/12/03 02:21:40;;;;;;;9.40;3.75;;;;;;;3.28;100.00;97359.69;4501318;31;20658;-74
2021/12/03 02:24:08;;;;;;;7.20;3.95;;;;;;;3.26;100.00;97369.34;4500010;31;20064;-74
2021/12/03 02:26:35;;;;;;;6.32;3.05;;;;;;;3.29;100.00;97361.31;4501544;31;20127;-74
2021/12/03 02:29:03;;;;;;;6.85;4.25;;;;;;;3.31;100.00;97374.16;4501420;31;20126;-74
2021/12/03 02:31:30;;;;;;;9.98;4.93;;;;;;;3.25;100.00;97369.47;4501416;31;20083;-74
2021/12/03 02:33:57;;;;;;;7.25;4.47;;;;;;;3.21;100.00;97384.44;4501326;31;20682;-74
2021/12/03 02:36:25;;;;;;;8.23;4.12;;;;;;;3.20;100.00;97388.78;4501321;31;20076;-74
2021/12/03 02:38:52;;;;;;;8.85;4.37;;;;;;;3.16;100.00;97397.75;4501441;31;20096;-74
2021/12/03 02:41:20;;;;;;;8.55;4.87;;;;;;;3.14;100.00;97398.81;4501276;31;20119;-74
2021/12/03 02:43:47;;;;;;;10.20;4.10;;;;;;;3.12;100.00;97405.88;4501322;31;20118;-74
2021/12/03 02:46:14;;;;;;;8.80;4.97;;;;;;;3.08;100.00;97410.47;4501254;31;20111;-74
2021/12/03 02:48:42;;;;;;;10.45;5.18;;;;;;;3.11;100.00;97414.59;4501401;31;20104;-74
2021/12/03 02:51:10;;;;;;;7.43;4.47;;;;;;;3.19;100.00;97418.22;4501584;31;20136;-74
2021/12/03 02:53:38;;;;;;;10.18;5.18;;;;;;;3.24;100.00;97429.94;4501268;31;20096;-74
2021/12/03 02:56:06;;;;;;;9.65;5.25;;;;;;;3.26;100.00;97428.88;4501338;31;20122;-74
2021/12/03 02:58:33;;;;;;;11.90;5.57;;;;;;;3.18;100.00;97439.03;4501217;31;20088;-74
2021/12/03 03:01:03;;;;;;;12.82;6.85;;;;;;;3.25;100.00;97440.16;4501276;31;20160;-74
2021/12/03 03:03:30;;;;;;;13.27;6.85;;;;;;;3.18;100.00;97436.44;4501343;31;20092;-74
2021/12/03 03:06:02;;;;;;;14.73;6.93;;;;;;;3.17;100.00;97447.72;4501265;31;20521;-74
2021/12/03 03:08:31;;;;;;;13.52;7.10;;;;;;;3.22;100.00;97450.75;4501270;31;20133;-74
2021/12/03 03:11:02;;;;;;;12.82;6.57;;;;;;;3.22;100.00;97455.13;4501035;31;20547;-74
2021/12/03 03:13:29;;;;;;;16.67;7.87;;;;;;;3.19;100.00;97453.59;4501064;31;20608;-74
2021/12/03 03:15:57;;;;;;;13.38;6.85;;;;;;;3.26;100.00;97464.28;4501188;31;20092;-74
2021/12/03 03:18:27;;;;;;;15.27;8.23;;;;;;;3.25;100.00;97481.56;4501118;31;20130;-74
2021/12/03 03:20:59;;;;;;;14.43;8.15;;;;;;;3.29;100.00;97475.22;4500143;31;20126;-74
2021/12/03 03:23:27;;;;;;;17.60;8.50;;;;;;;3.29;100.00;97470.03;4501121;31;20155;-74
2021/12/03 03:25:55;;;;;;;17.73;8.45;;;;;;;3.35;100.00;97472.13;4501043;31;20673;-74
2021/12/03 03:28:23;;;;;;;19.58;9.68;;;;;;;3.36;100.00;97471.19;4496955;31;20131;-74
2021/12/03 03:30:53;;;;;;;19.37;9.95;;;;;;;3.38;100.00;97486.59;4501276;31;20155;-74
2021/12/03 03:33:22;;;;;;;15.73;8.27;;;;;;;3.42;100.00;97497.50;4500843;31;20126;-74
2021/12/03 03:35:49;;;;;;;20.70;10.70;;;;;;;3.48;100.00;97494.44;4500958;31;20088;-74
2021/12/03 03:38:16;;;;;;;21.50;10.35;;;;;;;3.44;100.00;97498.22;4500842;31;20171;-74
2021/12/03 03:40:46;;;;;;;20.98;9.93;;;;;;;3.37;100.00;97509.06;4500883;31;20508;-74
2021/12/03 03:43:14;;;;;;;19.98;10.75;;;;;;;3.42;100.00;97510.47;4500831;31;20123;-74
2021/12/03 03:45:41;;;;;;;19.65;10.38;;;;;;;3.27;100.00;97523.69;4499943;31;20104;-74
2021/12/03 03:48:09;;;;;;;19.95;11.45;;;;;;;3.24;100.00;97518.78;4500773;31;20513;-74
2021/12/03 03:50:37;;;;;;;18.90;11.12;;;;;;;3.28;100.00;97520.16;4500832;31;20108;-74
2021/12/03 03:53:05;;;;;;;25.83;12.98;;;;;;;3.31;100.00;97519.91;4500889;31;20130;-74
2021/12/03 03:55:33;;;;;;;22.08;11.18;;;;;;;3.26;100.00;97526.41;4500678;31;20437;-74
2021/12/03 03:58:01;;;;;;;25.02;13.00;;;;;;;3.35;100.00;97531.66;4500518;31;20476;-74
2021/12/03 04:00:32;;;;;;;20.48;11.35;;;;;;;3.34;100.00;97530.00;4500947;31;20414;-74
2021/12/03 04:03:00;;;;;;;22.42;13.05;;;;;;;3.35;100.00;97536.84;4500656;31;20085;-74
2021/12/03 04:05:27;;;;;;;17.27;10.05;;;;;;;3.35;100.00;97521.31;4500759;31;20111;-74
2021/12/03 04:07:55;;;;;;;24.85;11.90;;;;;;;3.19;100.00;97526.06;4500671;31;20099;-74
2021/12/03 04:10:22;;;;;;;23.85;12.13;;;;;;;3.22;100.00;97536.16;4500668;31;20642;-74
2021/12/03 04:12:49;;;;;;;25.73;11.93;;;;;;;3.05;100.00;97540.09;4500518;31;20127;-74
2021/12/03 04:15:17;;;;;;;15.35;9.25;;;;;;;3.03;100.00;97541.97;4500599;31;20453;-74
2021/12/03 04:17:45;;;;;;;18.45;9.98;;;;;;;3.08;100.00;97551.97;4500430;31;20107;-74
2021/12/03 04:20:13;;;;;;;18.95;9.93;;;;;;;3.02;100.00;97566.19;4486363;31;20130;-74
2021/12/03 04:22:41;;;;;;;22.80;11.27;;;;;;;2.99;100.00;97577.59;4490676;31;20096;-74
2021/12/03 04:25:14;;;;;;;19.15;10.95;;;;;;;2.90;100.00;97580.91;4484791;32;20396;-74
2021/12/03 04:27:42;;;;;;;18.95;10.55;;;;;;;2.92;100.00;97591.13;4485697;31;20088;-74
2021/12/03 04:30:14;;;;;;;17.60;10.18;;;;;;;2.91;100.00;97585.13;4500456;31;20126;-74
2021/12/03 04:32:41;;;;;;;20.50;11.38;;;;;;;2.94;100.00;97594.44;4500520;31;20134;-74
2021/12/03 04:35:09;;;;;;;18.20;9.05;;;;;;;2.86;100.00;97607.94;4500562;31;20458;-74
2021/12/03 04:37:37;;;;;;;23.55;10.57;;;;;;;2.89;100.00;97609.47;4500425;31;20159;-74
2021/12/03 04:40:07;;;;;;;23.90;11.85;;;;;;;2.92;100.00;97617.00;4500204;31;20134;-74
2021/12/03 04:42:35;;;;;;;20.12;10.27;;;;;;;2.90;100.00;97609.34;4500362;31;20114;-74
2021/12/03 04:45:05;;;;;;;27.13;12.48;;;;;;;2.86;100.00;97614.87;4500250;31;20190;-74
2021/12/03 04:47:32;;;;;;;25.08;12.48;;;;;;;2.87;100.00;97619.94;4500116;31;20092;-74
2021/12/03 04:50:00;;;;;;;19.23;10.77;;;;;;;2.79;100.00;97617.94;4500320;31;20129;-74
2021/12/03 04:52:27;;;;;;;19.27;10.15;;;;;;;2.76;100.00;97631.09;4500203;31;20462;-75
2021/12/03 04:54:55;;;;;;;24.52;12.15;;;;;;;2.71;100.00;97642.72;4499794;31;20103;-75
2021/12/03 04:57:22;;;;;;;23.70;11.23;;;;;;;2.64;100.00;97645.78;4498832;31;20126;-75
2021/12/03 04:59:49;;;;;;;22.15;10.68;;;;;;;2.66;100.00;97637.91;4485865;31;20164;-75
2021/12/03 05:02:19;;;;;;;19.30;9.70;;;;;;;2.60;100.00;97646.94;4470869;32;21102;-74
2021/12/03 05:04:48;;;;;;;23.50;12.63;;;;;;;2.62;100.00;97652.81;4477166;32;20096;-75
2021/12/03 05:09:42;;;;;;;21.62;10.93;;;;;;;2.60;100.00;97653.87;4478913;32;20101;-75
2021/12/03 05:12:10;;;;;;;18.20;9.43;;;;;;;2.48;100.00;97656.44;4484085;32;20092;-75
2021/12/03 05:14:37;;;;;;;22.35;11.80;;;;;;;2.53;100.00;97669.03;4484152;32;20096;-75
2021/12/03 05:17:05;;;;;;;19.33;11.30;;;;;;;2.49;100.00;97668.41;4483977;32;20421;-75
2021/12/03 05:19:32;;;;;;;28.50;12.30;;;;;;;2.48;100.00;97679.72;4484017;32;20108;-75
2021/12/03 05:21:59;;;;;;;22.33;10.73;;;;;;;2.42;100.00;97687.06;4478447;32;20143;-75
2021/12/03 05:24:26;;;;;;;22.58;11.45;;;;;;;2.37;100.00;97702.09;4483470;32;20123;-75
2021/12/03 05:26:54;;;;;;;23.27;11.55;;;;;;;2.33;100.00;97698.09;4483904;32;20473;-75
2021/12/03 05:29:21;;;;;;;24.35;10.57;;;;;;;2.33;100.00;97698.09;4482910;31;20135;-75
2021/12/03 05:31:49;;;;;;;24.80;11.45;;;;;;;2.28;100.00;97709.56;4466553;32;20123;-75
2021/12/03 05:34:32;;;;;;;21.00;8.57;;;;;;;2.28;100.00;97713.94;4466500;32;20089;-75
2021/12/03 05:36:59;;;;;;;19.35;9.20;;;;;;;2.33;100.00;97744.59;4468216;32;20472;-75
2021/12/03 05:39:27;;;;;;;20.55;9.80;;;;;;;2.28;100.00;97726.84;4471217;32;20096;-74
2021/12/03 05:41:54;;;;;;;16.45;8.60;;;;;;;2.31;100.00;97742.94;4491626;31;20175;-75
2021/12/03 05:44:22;;;;;;;17.48;7.90;;;;;;;2.22;100.00;97750.56;4498305;31;20100;-75
2021/12/03 05:46:49;;;;;;;17.17;8.70;;;;;;;2.24;100.00;97756.44;4487483;31;20134;-75
2021/12/03 05:49:16;;;;;;;15.57;7.03;;;;;;;2.18;100.00;97772.38;4497218;31;20579;-75
2021/12/03 05:51:43;;;;;;;16.33;6.95;;;;;;;2.16;99.16;97787.16;4495155;31;20154;-74
2021/12/03 05:54:10;;;;;;;16.77;6.30;;;;;;;2.19;97.44;97786.94;4496104;31;20164;-75
2021/12/03 05:56:38;;;;;;;10.15;5.75;;;;;;;2.16;97.63;97797.50;4495792;31;20238;-75
2021/12/03 05:59:05;;;;;;;13.77;6.68;;;;;;;2.03;96.57;97797.53;4493891;31;20104;-73
2021/12/03 06:01:32;;;;;;;15.02;6.75;;;;;;;2.07;96.27;97804.13;4497388;31;20122;-74
2021/12/03 06:04:00;;;;;;;7.85;5.18;;;;;;;2.05;94.91;97816.34;4489001;31;20139;-75
2021/12/03 06:06:27;;;;;;;12.82;6.47;;;;;;;1.99;95.60;97812.41;4494947;31;20551;-75
2021/12/03 06:08:54;;;;;;;12.10;6.00;;;;;;;1.94;95.05;97823.06;4495036;31;20111;-75
2021/12/03 06:11:21;;;;;;;12.73;5.50;;;;;;;1.93;94.84;97812.84;4496723;31;20100;-75
2021/12/03 06:13:48;;;;;;;10.38;5.00;;;;;;;1.89;94.18;97820.00;4486845;31;21552;-75
2021/12/03 06:16:15;;;;;;;11.35;4.75;;;;;;;1.86;92.67;97822.78;4495147;31;20439;-75
2021/12/03 06:18:43;;;;;;;15.07;5.82;;;;;;;1.83;93.83;97830.72;4489027;31;20865;-75
2021/12/03 06:21:11;;;;;;;9.77;5.22;;;;;;;1.76;93.26;97834.69;4486609;31;20472;-75
2021/12/03 06:23:39;;;;;;;9.30;4.43;;;;;;;1.71;92.42;97835.00;4487983;31;20122;-75
2021/12/03 06:26:08;;;;;;;14.70;6.03;;;;;;;1.66;92.64;97831.06;4499164;31;20100;-75
2021/12/03 06:28:37;;;;;;;9.00;3.95;;;;;;;1.68;93.66;97839.50;4496395;31;20601;-76
2021/12/03 06:31:04;;;;;;;9.65;3.30;;;;;;;1.66;90.95;97856.88;4493048;31;20096;-75
2021/12/03 06:33:32;;;;;;;5.47;3.08;;;;;;;1.64;92.61;97858.75;4499101;31;20592;-76
2021/12/03 06:35:59;;;;;;;7.12;3.92;;;;;;;1.58;91.93;97863.38;4493684;31;20108;-76
2021/12/03 06:38:27;;;;;;;6.47;2.67;;;;;;;1.51;90.26;97875.03;4498940;31;20104;-76
2021/12/03 06:40:55;;;;;;;14.87;3.97;;;;;;;1.48;90.51;97888.13;4497205;31;82655;-75
2021/12/03 06:43:22;;;;;;;8.63;4.03;;;;;;;1.49;90.01;97894.16;4500341;31;20092;-75
2021/12/03 06:45:50;;;;;;;7.70;2.25;;;;;;;1.45;90.17;97916.75;4501222;31;20087;-76
2021/12/03 06:48:18;;;;;;;5.95;2.75;;;;;;;1.42;88.91;97901.44;4497782;31;20156;-76
2021/12/03 06:50:48;;;;;;;10.50;4.03;;;;;;;1.49;88.84;97914.78;4500270;31;20175;-76
2021/12/03 06:53:17;;;;;;;8.90;3.03;;;;;;;1.44;89.77;97902.19;4497349;31;20092;-76
2021/12/03 06:55:47;;;;;;;5.60;3.20;;;;;;;1.45;89.03;97908.19;4497300;31;20746;-76
2021/12/03 06:58:16;;;;;;;8.50;3.50;;;;;;;1.42;89.10;97919.53;4492657;31;20096;-76
2021/12/03 07:00:45;;;;;;;6.30;2.40;;;;;;;1.34;88.22;97924.38;4500519;31;20436;-76
2021/12/03 07:03:12;;;;;;;3.95;2.47;;;;;;;1.27;88.09;97925.69;4493681;31;20088;-76
2021/12/03 07:05:40;;;;;;;5.12;2.00;;;;;;;1.37;87.71;97937.88;4504456;31;20172;-76
2021/12/03 07:08:07;;;;;;;7.05;2.90;;;;;;;1.35;88.55;97933.78;4508961;31;20087;-77
2021/12/03 07:10:35;;;;;;;7.47;2.55;;;;;;;1.35;86.61;97951.84;4506449;31;20092;-78
2021/12/03 07:13:02;;;;;;;7.37;2.45;;;;;;;1.27;86.29;97957.47;4499748;31;20088;-78
2021/12/03 07:15:30;;;;;;;5.78;2.47;;;;;;;1.23;86.08;97949.09;4490112;31;20179;-78
2021/12/03 07:17:57;;;;;;;6.07;1.83;;;;;;;1.34;86.75;97955.34;4502968;31;20118;-79
2021/12/03 07:20:26;;;;;;;7.05;2.70;;;;;;;1.31;86.99;97963.28;4493480;31;20095;-79
2021/12/03 07:22:54;;;;;;;8.32;3.53;;;;;;;1.22;86.73;97968.09;4491924;31;20153;-79
2021/12/03 07:25:22;;;;;;;7.12;2.30;;;;;;;1.26;87.31;97975.63;4489901;31;20092;-80
2021/12/03 07:27:50;;;;;;;5.70;2.37;;;;;;;1.29;85.66;97990.91;4491802;31;20434;-77
2021/12/03 07:30:18;;;;;;;14.35;2.37;;;;;;;1.35;86.87;98000.88;4493847;31;20100;-75
2021/12/03 07:32:46;;;;;;;5.78;2.20;;;;;;;1.36;85.64;98015.41;4499761;31;20127;-75
2021/12/03 07:35:14;;;;;;;7.45;2.40;;;;;;;1.32;86.04;98026.87;4500564;31;20095;-75
2021/12/03 07:37:43;;;;;;;9.02;2.33;;;;;;;1.36;86.43;98034.31;4498988;31;20104;-75
2021/12/03 07:40:11;;;;;;;6.65;2.20;;;;;;;1.37;86.24;98042.87;4500520;31;20155;-76
2021/12/03 07:42:39;;;;;;;5.45;2.12;;;;;;;1.36;86.28;98041.22;4497692;31;20130;-75
2021/12/03 07:45:08;;;;;;;8.15;2.70;;;;;;;1.37;86.54;98041.09;4500308;31;20365;-74
2021/12/03 07:47:37;;;;;;;5.47;2.37;;;;;;;1.35;86.19;98048.13;4497921;31;20112;-75
2021/12/03 07:50:06;;;;;;;3.95;1.67;;;;;;;1.34;85.65;98048.22;4506058;31;20104;-75
2021/12/03 07:52:34;;;;;;;5.62;2.22;;;;;;;1.34;86.05;98051.63;4503838;31;20099;-74
2021/12/03 07:55:03;;;;;;;7.12;2.20;;;;;;;1.29;85.96;98058.00;4502201;31;20103;-75
2021/12/03 07:57:30;;;;;;;9.65;2.35;;;;;;;1.42;86.91;98074.38;4482406;31;20148;-74
2021/12/03 07:59:57;;;;;;;4.15;1.80;;;;;;;1.40;85.65;98081.37;4496331;31;20096;-73
2021/12/03 08:02:26;;;;;;;5.93;2.28;;;;;;;1.45;84.07;98084.50;4491635;31;20097;-75
2021/12/03 08:04:54;;;;;;;3.53;1.60;;;;;;;1.36;84.33;98090.25;4485855;31;20088;-74
2021/12/03 08:07:22;;;;;;;10.05;2.05;;;;;;;1.41;84.29;98083.88;4498105;31;20118;-74
2021/12/03 08:09:49;;;;;;;7.35;2.17;;;;;;;1.47;83.76;98093.00;4494636;31;20159;-74
2021/12/03 08:12:17;;;;;;;4.03;1.90;;;;;;;1.53;83.54;98095.19;4498519;31;20524;-74
2021/12/03 08:14:44;;;;;;;7.90;2.15;;;;;;;1.64;83.49;98089.34;4486204;31;20096;-74
2021/12/03 08:17:11;;;;;;;4.25;1.60;;;;;;;1.77;83.21;98094.53;4499039;31;20100;-74
2021/12/03 08:19:39;;;;;;;8.50;1.80;;;;;;;1.76;81.59;98101.44;4495573;31;20115;-75
2021/12/03 08:22:06;;;;;;;4.80;2.28;;;;;;;1.71;79.83;98115.56;4490415;31;20103;-74
2021/12/03 08:24:34;;;;;;;6.53;2.25;;;;;;;1.70;79.53;98112.19;4494142;31;20755;-73
2021/12/03 08:27:01;;;;;;;3.65;1.87;;;;;;;1.73;78.37;98113.75;4495487;31;20096;-75
2021/12/03 08:29:32;;;;;;;2.65;0.98;;;;;;;1.82;79.18;98120.91;4498908;31;20106;-74
2021/12/03 08:31:59;;;;;;;6.65;1.92;;;;;;;1.84;78.22;98137.12;4493051;31;20134;-73
2021/12/03 08:34:26;;;;;;;4.37;1.75;;;;;;;1.88;78.35;98136.00;4497134;31;20123;-74
2021/12/03 08:36:54;;;;;;;6.30;1.95;;;;;;;1.86;75.86;98137.88;4496684;31;20113;-74
2021/12/03 08:39:28;;;;;;;5.07;1.75;;;;;;;1.99;76.12;98137.06;4501830;31;20096;-74
2021/12/03 08:41:55;;;;;;;5.50;1.73;;;;;;;2.08;77.30;98139.06;4490514;31;20096;-74
2021/12/03 08:44:22;;;;;;;7.18;2.22;;;;;;;2.05;75.34;98154.75;4487148;31;20120;-74
2021/12/03 08:46:57;;;;;;;4.85;2.00;;;;;;;2.00;73.43;98177.47;4493955;31;20135;-74
2021/12/03 08:49:37;;;;;;;2.00;1.40;;;;;;;2.21;76.90;98172.66;4492997;31;20401;-74
2021/12/03 08:57:38;;;;;;;4.47;1.80;;;;;;;2.61;73.69;98193.34;4490154;31;20089;-73
2021/12/03 09:00:12;;;;;;;2.97;1.40;;;;;;;2.25;72.13;98193.03;4502396;31;20100;-73
2021/12/03 09:02:41;;;;;;;5.95;2.20;;;;;;;2.21;72.17;98198.50;4499401;31;20088;-72
2021/12/03 09:05:09;;;;;;;2.95;1.37;;;;;;;2.14;71.90;98205.84;4496133;31;20123;-74
2021/12/03 09:07:37;;;;;;;6.32;2.28;;;;;;;2.17;73.67;98220.34;4497691;31;20087;-73
2021/12/03 09:10:06;;;;;;;4.82;2.28;;;;;;;2.26;75.69;98223.16;4494672;31;20171;-73
2021/12/03 09:12:33;;;;;;;7.60;2.85;;;;;;;2.40;75.06;98224.03;4491278;31;20127;-73
2021/12/03 09:15:05;;;;;;;9.27;2.65;;;;;;;2.51;75.46;98229.31;4506714;31;20409;-72
2021/12/03 09:17:46;;;;;;;2.80;1.83;;;;;;;2.59;74.86;98250.34;4488139;31;20457;-73
2021/12/03 09:23:00;;;;;;;6.10;3.10;;;;;;;2.65;73.25;98249.13;4502958;31;20631;-73
2021/12/03 09:25:52;;;;;;;5.57;2.05;;;;;;;2.70;72.29;98259.16;4505627;31;20122;-73
2021/12/03 09:28:19;;;;;;;4.65;2.17;;;;;;;2.60;71.77;98254.56;4501750;31;20174;-74
2021/12/03 09:30:48;;;;;;;7.72;2.33;;;;;;;2.58;73.20;98250.44;4512966;31;20156;-75
2021/12/03 09:33:18;;;;;;;4.12;1.60;;;;;;;2.78;73.72;98252.53;4502638;31;20455;-75
2021/12/03 09:35:50;;;;;;;3.30;1.80;;;;;;;2.69;71.32;98241.97;4510662;31;20159;-74
2021/12/03 09:38:17;;;;;;;4.35;2.22;;;;;;;2.77;71.09;98256.06;4504926;31;20142;-74
2021/12/03 09:40:45;;;;;;;3.90;1.80;;;;;;;2.81;69.28;98249.75;4506765;31;20457;-74
2021/12/03 09:43:13;;;;;;;9.52;1.73;;;;;;;2.93;68.92;98255.87;4503046;31;20114;-73
2021/12/03 09:45:48;;;;;;;4.05;1.58;;;;;;;2.95;67.08;98259.22;4511135;31;20163;-74
2021/12/03 09:48:29;;;;;;;5.32;1.48;;;;;;;3.03;62.92;98253.53;4509388;31;20099;-74
2021/12/03 09:50:57;;;;;;;3.58;1.08;;;;;;;3.04;61.27;98267.28;4498415;31;20105;-74
2021/12/03 09:54:07;;;;;;;6.72;2.37;;;;;;;2.98;60.84;98252.97;4503059;31;20076;-74
2021/12/03 09:56:15;;;;;;;5.22;1.55;;;;;;;3.11;60.24;98259.00;4483674;32;20430;-73
2021/12/03 10:01:18;;;;;;;4.15;1.60;;;;;;;3.28;61.18;98252.69;4499757;31;20590;-73
2021/12/03 10:14:57;;;;;;;7.50;1.58;;;;;;;3.13;61.47;98266.66;4499396;31;20145;-75
2021/12/03 10:47:06;;;;;;;6.20;2.00;;;;;;;2.50;65.23;98269.03;4439753;32;20127;-73
2021/12/03 10:50:12;;;;;;;4.75;1.65;;;;;;;2.60;65.17;98280.41;4439529;32;20124;-73
2021/12/03 12:01:45;;;;;;;1.65;1.00;;;;;;;2.92;59.71;98367.22;4443637;32;20097;-74
2021/12/03 13:04:58;;;;;;;4.28;1.73;;;;;;;2.25;70.81;98409.31;4496059;31;20100;-72
2021/12/03 14:38:54;;;;;;;2.78;1.30;;;;;;;1.44;72.11;98480.34;4421335;32;20201;-74
2021/12/03 14:42:02;;;;;;;4.15;2.15;;;;;;;1.31;72.01;98492.25;4431502;32;20473;-74
2021/12/03 14:47:35;;;;;;;10.70;1.87;;;;;;;1.22;72.90;98497.00;4509934;31;20092;-74
2021/12/03 14:52:42;;;;;;;4.95;2.22;;;;;;;1.14;73.31;98501.78;4500968;31;20426;-74
2021/12/03 14:55:10;;;;;;;6.45;2.15;;;;;;;1.13;72.95;98502.69;4506292;31;20096;-73
2021/12/03 14:57:55;;;;;;;4.72;1.77;;;;;;;1.12;73.05;98508.78;4501543;31;20159;-74
2021/12/03 15:03:37;;;;;;;6.68;1.75;;;;;;;1.14;73.06;98522.41;4465674;32;20105;-74
2021/12/03 15:08:46;;;;;;;5.40;2.12;;;;;;;0.95;73.35;98524.31;4470891;32;20143;-74
2021/12/03 15:22:37;;;;;;;3.28;1.60;;;;;;;0.72;70.56;98541.84;4412412;32;20094;-74
2021/12/03 15:25:27;;;;;;;6.43;2.47;;;;;;;0.67;69.39;98541.25;4420593;32;20172;-74
2021/12/03 15:35:58;;;;;;;4.72;1.90;;;;;;;0.25;70.26;98547.72;4405477;32;20110;-75
2021/12/03 15:38:38;;;;;;;3.62;1.40;;;;;;;0.24;70.86;98556.34;4404516;32;20502;-74
2021/12/03 16:13:48;;;;;;;3.72;1.70;;;;;;;-0.32;67.76;98578.81;4481823;31;20096;-74
2021/12/03 16:51:26;;;;;;;4.28;1.40;;;;;;;-0.28;63.59;98609.50;4466296;32;20567;-74
2021/12/03 16:53:56;;;;;;;5.57;1.42;;;;;;;-0.28;64.02;98608.66;4466479;32;20307;-74
2021/12/03 16:56:26;;;;;;;2.70;1.12;;;;;;;-0.32;64.13;98602.81;4466379;32;20532;-74
2021/12/03 16:58:56;;;;;;;2.42;1.12;;;;;;;-0.25;63.80;98614.50;4466112;32;20107;-74
2021/12/03 17:01:32;;;;;;;3.62;1.37;;;;;;;-0.25;63.77;98618.81;4466324;32;20131;-73
2021/12/03 17:10:02;;;;;;;4.23;1.83;;;;;;;-0.27;62.94;98610.31;4466156;32;20140;-74
2021/12/03 17:12:25;;;;;;;4.20;1.70;;;;;;;-0.27;62.40;98603.44;4476632;31;20122;-73
2021/12/03 17:15:12;;;;;;;;;;;;;;;-0.26;62.40;98612.84;4500709;31;20152;-73
2021/12/03 17:58:38;;;;;;;8.95;2.58;;;;;;;-0.49;64.08;98680.81;4465508;32;20220;-73
2021/12/03 18:01:12;;;;;;;4.50;2.12;;;;;;;-0.46;64.04;98677.28;4465436;32;20502;-73
2021/12/03 18:04:03;;;;;;;3.92;1.73;;;;;;;-0.57;64.42;98670.88;4466283;32;20458;-73
2021/12/03 18:07:37;;;;;;;5.57;2.00;;;;;;;-0.57;64.78;98677.78;4467736;32;20101;-73
2021/12/03 18:45:14;;;;;;;5.07;2.60;;;;;;;-0.57;67.48;98665.72;4501322;31;20139;-72
2021/12/03 18:55:57;;;;;;;5.90;2.78;;;;;;;-0.56;67.66;98661.41;4467341;32;20165;-73
2021/12/03 18:58:26;;;;;;;6.97;3.17;;;;;;;-0.39;66.87;98669.19;4467184;32;20116;-73
2021/12/03 19:00:56;;;;;;;3.78;2.12;;;;;;;-0.52;67.83;98672.41;4467317;32;20117;-73
2021/12/03 19:03:38;;;;;;;4.12;2.25;;;;;;;-0.53;67.94;98663.84;4467433;32;20105;-73
2021/12/03 19:08:43;;;;;;;6.65;2.65;;;;;;;-0.31;66.30;98658.53;4467307;32;20127;-72
2021/12/03 19:11:22;;;;;;;5.97;2.60;;;;;;;-0.36;66.25;98668.22;4467305;32;20529;-73
2021/12/03 19:13:50;;;;;;;6.85;2.50;;;;;;;-0.39;65.88;98668.38;4467198;32;20148;-73
2021/12/03 19:16:21;;;;;;;6.05;2.78;;;;;;;-0.41;65.68;98649.56;4466062;32;20143;-72
2021/12/03 19:18:51;;;;;;;3.50;1.67;;;;;;;-0.34;65.70;98650.16;4466936;32;20089;-73
2021/12/03 19:21:25;;;;;;;4.70;2.58;;;;;;;-0.38;65.72;98650.28;4466973;32;20108;-73
2021/12/03 19:23:55;;;;;;;4.25;1.70;;;;;;;-0.38;65.12;98634.84;4467507;32;20161;-72
2021/12/03 19:26:26;;;;;;;8.10;2.97;;;;;;;-0.33;64.36;98649.22;4476366;32;20103;-73
2021/12/03 19:28:54;;;;;;;7.62;2.97;;;;;;;-0.32;64.51;98653.47;4493939;31;20087;-73
2021/12/03 19:31:23;;;;;;;10.23;2.53;;;;;;;-0.34;64.57;98650.16;4500990;31;20119;-73